sensor_id;sensor_type;location;lat;lon;timestamp;pressure;altitude;pressure_sealevel;temperature;humidity
65276;BME280;51875;49.994;14.052;2023-02-13T00:00:09;100414.84;;;5.02;100.00
65276;BME280;51875;49.994;14.052;2023-02-13T00:01:34;100413.94;;;5.00;100.00
65276;BME280;51875;49.994;14.052;2023-02-13T00:02:50;100416.78;;;5.09;100.00
65276;BME280;51875;49.994;14.052;2023-02-13T00:04:07;100421.94;;;5.07;100.00
65276;BME280;51875;49.994;14.052;2023-02-13T00:05:22;100414.13;;;5.07;100.00
65276;BME280;51875;49.994;14.052;2023-02-13T00:06:38;100416.31;;;4.90;100.00
65276;BME280;51875;49.994;14.052;2023-02-13T00:07:53;100423.47;;;5.01;100.00
65276;BME280;51875;49.994;14.052;2023-02-13T00:09:09;100420.44;;;4.84;100.00
65276;BME280;51875;49.994;14.052;2023-02-13T00:10:25;100421.88;;;4.72;100.00
65276;BME280;51875;49.994;14.052;2023-02-13T00:11:41;100413.00;;;4.96;100.00
65276;BME280;51875;49.994;14.052;2023-02-13T00:12:56;100416.09;;;5.16;100.00
65276;BME280;51875;49.994;14.052;2023-02-13T00:14:12;100421.59;;;5.27;100.00
65276;BME280;51875;49.994;14.052;2023-02-13T00:15:28;100423.38;;;5.30;100.00
65276;BME280;51875;49.994;14.052;2023-02-13T00:16:43;100420.94;;;5.36;100.00
65276;BME280;51875;49.994;14.052;2023-02-13T00:18:00;100418.47;;;5.41;100.00
65276;BME280;51875;49.994;14.052;2023-02-13T00:19:15;100417.31;;;5.29;100.00
65276;BME280;51875;49.994;14.052;2023-02-13T00:20:31;100415.81;;;5.39;100.00
65276;BME280;51875;49.994;14.052;2023-02-13T00:21:47;100425.09;;;5.29;100.00
65276;BME280;51875;49.994;14.052;2023-02-13T00:23:02;100416.72;;;5.40;100.00
65276;BME280;51875;49.994;14.052;2023-02-13T00:24:18;100422.56;;;5.32;100.00
65276;BME280;51875;49.994;14.052;2023-02-13T00:25:34;100419.19;;;5.35;100.00
65276;BME280;51875;49.994;14.052;2023-02-13T00:26:49;100416.03;;;5.13;100.00
65276;BME280;51875;49.994;14.052;2023-02-13T00:28:05;100420.44;;;4.84;100.00
65276;BME280;51875;49.994;14.052;2023-02-13T00:29:20;100420.47;;;5.17;100.00
65276;BME280;51875;49.994;14.052;2023-02-13T00:30:36;100421.19;;;5.12;100.00
65276;BME280;51875;49.994;14.052;2023-02-13T00:31:52;100427.63;;;5.26;100.00
65276;BME280;51875;49.994;14.052;2023-02-13T00:33:08;100428.13;;;5.13;100.00
65276;BME280;51875;49.994;14.052;2023-02-13T00:34:23;100427.56;;;5.25;100.00
65276;BME280;51875;49.994;14.052;2023-02-13T00:35:39;100424.53;;;5.07;100.00
65276;BME280;51875;49.994;14.052;2023-02-13T00:36:55;100430.53;;;5.05;100.00
65276;BME280;51875;49.994;14.052;2023-02-13T00:38:10;100429.72;;;5.07;100.00
65276;BME280;51875;49.994;14.052;2023-02-13T00:39:26;100426.66;;;5.22;100.00
65276;BME280;51875;49.994;14.052;2023-02-13T00:40:42;100426.09;;;5.34;100.00
65276;BME280;51875;49.994;14.052;2023-02-13T00:41:57;100427.81;;;5.34;100.00
65276;BME280;51875;49.994;14.052;2023-02-13T00:43:13;100427.94;;;5.05;100.00
65276;BME280;51875;49.994;14.052;2023-02-13T00:44:28;100430.88;;;5.19;100.00
65276;BME280;51875;49.994;14.052;2023-02-13T00:45:44;100433.72;;;4.94;100.00
65276;BME280;51875;49.994;14.052;2023-02-13T00:47:00;100424.75;;;4.83;100.00
65276;BME280;51875;49.994;14.052;2023-02-13T00:48:15;100422.16;;;4.83;100.00
65276;BME280;51875;49.994;14.052;2023-02-13T00:49:31;100428.81;;;5.05;100.00
65276;BME280;51875;49.994;14.052;2023-02-13T00:50:47;100420.09;;;5.03;100.00
65276;BME280;51875;49.994;14.052;2023-02-13T00:52:03;100419.00;;;4.63;100.00
65276;BME280;51875;49.994;14.052;2023-02-13T00:53:22;100420.38;;;4.50;100.00
65276;BME280;51875;49.994;14.052;2023-02-13T00:54:38;100415.41;;;4.90;100.00
65276;BME280;51875;49.994;14.052;2023-02-13T00:55:54;100418.78;;;4.86;100.00
65276;BME280;51875;49.994;14.052;2023-02-13T00:57:10;100415.28;;;4.85;100.00
65276;BME280;51875;49.994;14.052;2023-02-13T00:58:26;100413.09;;;5.01;100.00
65276;BME280;51875;49.994;14.052;2023-02-13T00:59:41;100417.25;;;4.94;100.00
65276;BME280;51875;49.994;14.052;2023-02-13T01:00:57;100414.47;;;4.25;100.00
65276;BME280;51875;49.994;14.052;2023-02-13T01:02:13;100420.97;;;4.10;100.00
65276;BME280;51875;49.994;14.052;2023-02-13T01:03:28;100413.25;;;4.43;100.00
65276;BME280;51875;49.994;14.052;2023-02-13T01:04:44;100420.63;;;4.29;100.00
65276;BME280;51875;49.994;14.052;2023-02-13T01:06:00;100419.44;;;4.17;100.00
65276;BME280;51875;49.994;14.052;2023-02-13T01:07:15;100426.19;;;4.12;100.00
65276;BME280;51875;49.994;14.052;2023-02-13T01:08:31;100423.31;;;4.32;100.00
65276;BME280;51875;49.994;14.052;2023-02-13T01:09:47;100416.81;;;4.77;100.00
65276;BME280;51875;49.994;14.052;2023-02-13T01:11:02;100413.81;;;4.95;100.00
65276;BME280;51875;49.994;14.052;2023-02-13T01:12:18;100416.97;;;4.52;100.00
65276;BME280;51875;49.994;14.052;2023-02-13T01:13:34;100412.28;;;4.10;100.00
65276;BME280;51875;49.994;14.052;2023-02-13T01:14:49;100414.28;;;3.90;100.00
65276;BME280;51875;49.994;14.052;2023-02-13T01:16:05;100413.88;;;4.34;100.00
65276;BME280;51875;49.994;14.052;2023-02-13T01:17:21;100412.31;;;4.41;100.00
65276;BME280;51875;49.994;14.052;2023-02-13T01:18:37;100409.59;;;4.66;100.00
65276;BME280;51875;49.994;14.052;2023-02-13T01:19:53;100407.28;;;4.77;100.00
65276;BME280;51875;49.994;14.052;2023-02-13T01:21:15;100412.91;;;4.93;100.00
65276;BME280;51875;49.994;14.052;2023-02-13T01:22:31;100411.69;;;4.80;100.00
65276;BME280;51875;49.994;14.052;2023-02-13T01:23:47;100411.94;;;4.27;100.00
65276;BME280;51875;49.994;14.052;2023-02-13T01:25:04;100414.28;;;4.19;100.00
65276;BME280;51875;49.994;14.052;2023-02-13T01:26:22;100406.91;;;4.33;100.00
65276;BME280;51875;49.994;14.052;2023-02-13T01:27:38;100404.28;;;4.62;100.00
65276;BME280;51875;49.994;14.052;2023-02-13T01:28:54;100404.00;;;4.83;100.00
65276;BME280;51875;49.994;14.052;2023-02-13T01:30:12;100408.94;;;5.07;100.00
65276;BME280;51875;49.994;14.052;2023-02-13T01:31:28;100409.25;;;5.18;100.00
65276;BME280;51875;49.994;14.052;2023-02-13T01:32:45;100418.06;;;5.25;100.00
65276;BME280;51875;49.994;14.052;2023-02-13T01:34:01;100417.56;;;5.05;100.00
65276;BME280;51875;49.994;14.052;2023-02-13T01:35:16;100413.59;;;5.19;100.00
65276;BME280;51875;49.994;14.052;2023-02-13T01:36:32;100414.97;;;5.05;100.00
65276;BME280;51875;49.994;14.052;2023-02-13T01:37:48;100421.53;;;5.24;100.00
65276;BME280;51875;49.994;14.052;2023-02-13T01:39:03;100424.06;;;5.22;100.00
65276;BME280;51875;49.994;14.052;2023-02-13T01:40:19;100416.19;;;4.87;100.00
65276;BME280;51875;49.994;14.052;2023-02-13T01:41:35;100416.19;;;5.19;100.00
65276;BME280;51875;49.994;14.052;2023-02-13T01:42:50;100413.91;;;4.98;100.00
65276;BME280;51875;49.994;14.052;2023-02-13T01:46:00;100403.00;;;4.79;100.00
65276;BME280;51875;49.994;14.052;2023-02-13T01:47:21;100409.50;;;4.95;100.00
65276;BME280;51875;49.994;14.052;2023-02-13T01:48:38;100409.66;;;5.02;100.00
65276;BME280;51875;49.994;14.052;2023-02-13T01:50:18;100414.84;;;5.02;100.00
65276;BME280;51875;49.994;14.052;2023-02-13T01:51:35;100411.50;;;4.74;100.00
65276;BME280;51875;49.994;14.052;2023-02-13T01:53:04;100416.03;;;4.81;100.00
65276;BME280;51875;49.994;14.052;2023-02-13T01:54:25;100418.22;;;4.98;100.00
65276;BME280;51875;49.994;14.052;2023-02-13T01:55:50;100406.53;;;5.14;100.00
65276;BME280;51875;49.994;14.052;2023-02-13T01:57:17;100403.41;;;5.27;100.00
65276;BME280;51875;49.994;14.052;2023-02-13T01:58:36;100402.00;;;5.06;100.00
65276;BME280;51875;49.994;14.052;2023-02-13T02:00:01;100408.22;;;5.13;100.00
65276;BME280;51875;49.994;14.052;2023-02-13T02:01:18;100410.78;;;4.78;100.00
65276;BME280;51875;49.994;14.052;2023-02-13T02:02:37;100416.59;;;4.38;100.00
65276;BME280;51875;49.994;14.052;2023-02-13T02:04:28;100409.16;;;4.51;100.00
65276;BME280;51875;49.994;14.052;2023-02-13T02:05:37;100406.75;;;4.89;100.00
65276;BME280;51875;49.994;14.052;2023-02-13T02:07:06;100405.31;;;5.01;100.00
65276;BME280;51875;49.994;14.052;2023-02-13T02:08:23;100413.00;;;4.96;100.00
65276;BME280;51875;49.994;14.052;2023-02-13T02:09:41;100412.09;;;4.95;100.00
65276;BME280;51875;49.994;14.052;2023-02-13T02:11:05;100412.88;;;4.91;100.00
65276;BME280;51875;49.994;14.052;2023-02-13T02:12:26;100406.38;;;4.45;100.00
65276;BME280;51875;49.994;14.052;2023-02-13T02:13:44;100411.56;;;4.75;100.00
65276;BME280;51875;49.994;14.052;2023-02-13T02:15:03;100404.75;;;4.79;100.00
65276;BME280;51875;49.994;14.052;2023-02-13T02:16:19;100401.81;;;4.66;100.00
65276;BME280;51875;49.994;14.052;2023-02-13T02:17:35;100411.09;;;4.58;100.00
65276;BME280;51875;49.994;14.052;2023-02-13T02:18:51;100414.84;;;4.37;100.00
65276;BME280;51875;49.994;14.052;2023-02-13T02:20:14;100406.03;;;4.63;100.00
65276;BME280;51875;49.994;14.052;2023-02-13T02:33:46;100400.31;;;5.08;100.00
65276;BME280;51875;49.994;14.052;2023-02-13T02:46:15;100391.41;;;4.99;100.00
65276;BME280;51875;49.994;14.052;2023-02-13T02:49:44;100378.31;;;4.94;100.00
65276;BME280;51875;49.994;14.052;2023-02-13T02:51:26;100376.22;;;4.79;100.00
65276;BME280;51875;49.994;14.052;2023-02-13T02:54:13;100382.59;;;4.29;100.00
65276;BME280;51875;49.994;14.052;2023-02-13T02:55:54;100381.59;;;4.24;100.00
65276;BME280;51875;49.994;14.052;2023-02-13T02:57:22;100379.66;;;4.17;100.00
65276;BME280;51875;49.994;14.052;2023-02-13T02:58:46;100380.81;;;3.98;100.00
65276;BME280;51875;49.994;14.052;2023-02-13T03:00:23;100379.13;;;3.98;100.00
65276;BME280;51875;49.994;14.052;2023-02-13T03:01:59;100377.66;;;4.06;100.00
65276;BME280;51875;49.994;14.052;2023-02-13T03:03:35;100375.63;;;4.27;100.00
65276;BME280;51875;49.994;14.052;2023-02-13T03:05:27;100383.00;;;4.43;100.00
65276;BME280;51875;49.994;14.052;2023-02-13T03:07:06;100381.13;;;4.68;100.00
65276;BME280;51875;49.994;14.052;2023-02-13T03:08:22;100379.72;;;4.81;100.00
65276;BME280;51875;49.994;14.052;2023-02-13T03:10:05;100371.97;;;4.50;100.00
65276;BME280;51875;49.994;14.052;2023-02-13T03:11:42;100375.69;;;3.99;100.00
65276;BME280;51875;49.994;14.052;2023-02-13T03:13:48;100377.22;;;3.92;100.00
65276;BME280;51875;49.994;14.052;2023-02-13T03:15:04;100383.78;;;4.10;100.00
65276;BME280;51875;49.994;14.052;2023-02-13T03:16:22;100378.94;;;4.21;100.00
65276;BME280;51875;49.994;14.052;2023-02-13T03:17:57;100371.94;;;4.49;100.00
65276;BME280;51875;49.994;14.052;2023-02-13T03:20:02;100383.88;;;4.44;100.00
65276;BME280;51875;49.994;14.052;2023-02-13T03:22:04;100384.22;;;4.56;100.00
65276;BME280;51875;49.994;14.052;2023-02-13T03:23:42;100372.03;;;4.53;100.00
65276;BME280;51875;49.994;14.052;2023-02-13T03:25:29;100387.94;;;4.64;100.00
65276;BME280;51875;49.994;14.052;2023-02-13T03:28:16;100382.56;;;4.58;100.00
65276;BME280;51875;49.994;14.052;2023-02-13T03:30:01;100376.66;;;4.64;100.00
65276;BME280;51875;49.994;14.052;2023-02-13T03:32:17;100374.56;;;4.50;100.00
65276;BME280;51875;49.994;14.052;2023-02-13T03:37:34;100375.50;;;4.85;100.00
65276;BME280;51875;49.994;14.052;2023-02-13T03:40:46;100373.06;;;4.59;100.00
65276;BME280;51875;49.994;14.052;2023-02-13T03:44:12;100372.69;;;4.77;100.00
65276;BME280;51875;49.994;14.052;2023-02-13T03:45:34;100379.00;;;4.87;100.00
65276;BME280;51875;49.994;14.052;2023-02-13T03:47:13;100379.00;;;4.87;100.00
65276;BME280;51875;49.994;14.052;2023-02-13T03:48:34;100375.31;;;4.78;100.00
65276;BME280;51875;49.994;14.052;2023-02-13T03:50:10;100375.44;;;4.51;100.00
65276;BME280;51875;49.994;14.052;2023-02-13T03:51:41;100376.41;;;4.55;100.00
65276;BME280;51875;49.994;14.052;2023-02-13T03:53:05;100370.19;;;4.80;100.00
65276;BME280;51875;49.994;14.052;2023-02-13T03:54:36;100370.31;;;4.86;100.00
65276;BME280;51875;49.994;14.052;2023-02-13T03:56:12;100367.56;;;4.80;100.00
65276;BME280;51875;49.994;14.052;2023-02-13T03:57:50;100371.94;;;4.81;100.00
65276;BME280;51875;49.994;14.052;2023-02-13T03:59:29;100373.22;;;4.65;100.00
65276;BME280;51875;49.994;14.052;2023-02-13T04:00:50;100369.84;;;4.68;100.00
65276;BME280;51875;49.994;14.052;2023-02-13T04:02:16;100367.31;;;4.69;100.00
65276;BME280;51875;49.994;14.052;2023-02-13T04:03:51;100364.09;;;4.79;100.00
65276;BME280;51875;49.994;14.052;2023-02-13T04:05:19;100366.88;;;4.86;100.00
65276;BME280;51875;49.994;14.052;2023-02-13T04:06:45;100369.47;;;4.87;100.00
65276;BME280;51875;49.994;14.052;2023-02-13T04:08:01;100367.50;;;4.77;100.00
65276;BME280;51875;49.994;14.052;2023-02-13T04:09:17;100368.31;;;5.08;100.00
65276;BME280;51875;49.994;14.052;2023-02-13T04:10:36;100369.09;;;5.05;100.00
65276;BME280;51875;49.994;14.052;2023-02-13T04:13:31;100371.75;;;5.07;100.00
65276;BME280;51875;49.994;14.052;2023-02-13T04:15:06;100370.66;;;4.99;100.00
65276;BME280;51875;49.994;14.052;2023-02-13T04:16:34;100369.03;;;5.02;100.00
65276;BME280;51875;49.994;14.052;2023-02-13T04:17:55;100376.59;;;4.94;100.00
65276;BME280;51875;49.994;14.052;2023-02-13T04:19:14;100379.91;;;4.89;100.00
65276;BME280;51875;49.994;14.052;2023-02-13T04:20:31;100379.06;;;4.90;100.00
65276;BME280;51875;49.994;14.052;2023-02-13T04:21:49;100369.56;;;4.58;100.00
65276;BME280;51875;49.994;14.052;2023-02-13T04:23:11;100370.19;;;4.48;100.00
65276;BME280;51875;49.994;14.052;2023-02-13T04:24:27;100370.66;;;4.34;100.00
65276;BME280;51875;49.994;14.052;2023-02-13T04:25:46;100370.34;;;4.23;100.00
65276;BME280;51875;49.994;14.052;2023-02-13T04:27:03;100368.72;;;4.27;100.00
65276;BME280;51875;49.994;14.052;2023-02-13T04:28:18;100373.97;;;4.29;100.00
65276;BME280;51875;49.994;14.052;2023-02-13T04:29:34;100359.63;;;4.42;100.00
65276;BME280;51875;49.994;14.052;2023-02-13T04:30:50;100372.56;;;4.11;100.00
65276;BME280;51875;49.994;14.052;2023-02-13T04:32:05;100375.94;;;4.37;100.00
65276;BME280;51875;49.994;14.052;2023-02-13T04:33:21;100373.78;;;4.53;100.00
65276;BME280;51875;49.994;14.052;2023-02-13T04:34:37;100377.03;;;4.78;100.00
65276;BME280;51875;49.994;14.052;2023-02-13T04:35:53;100368.00;;;4.63;100.00
65276;BME280;51875;49.994;14.052;2023-02-13T04:37:08;100368.78;;;4.29;100.00
65276;BME280;51875;49.994;14.052;2023-02-13T04:38:24;100374.00;;;3.72;100.00
65276;BME280;51875;49.994;14.052;2023-02-13T04:39:39;100371.91;;;3.60;100.00
65276;BME280;51875;49.994;14.052;2023-02-13T04:40:55;100379.53;;;3.56;100.00
65276;BME280;51875;49.994;14.052;2023-02-13T04:42:10;100378.19;;;3.68;100.00
65276;BME280;51875;49.994;14.052;2023-02-13T04:43:26;100379.50;;;3.83;100.00
65276;BME280;51875;49.994;14.052;2023-02-13T04:44:42;100377.88;;;4.16;100.00
65276;BME280;51875;49.994;14.052;2023-02-13T04:45:57;100381.94;;;4.06;100.00
65276;BME280;51875;49.994;14.052;2023-02-13T04:47:13;100377.97;;;4.19;100.00
65276;BME280;51875;49.994;14.052;2023-02-13T04:48:28;100377.41;;;4.28;100.00
65276;BME280;51875;49.994;14.052;2023-02-13T04:49:44;100384.47;;;4.04;100.00
65276;BME280;51875;49.994;14.052;2023-02-13T04:51:00;100375.63;;;4.27;100.00
65276;BME280;51875;49.994;14.052;2023-02-13T04:52:15;100373.59;;;4.47;100.00
65276;BME280;51875;49.994;14.052;2023-02-13T04:53:31;100378.75;;;4.45;100.00
65276;BME280;51875;49.994;14.052;2023-02-13T04:54:46;100384.19;;;4.24;100.00
65276;BME280;51875;49.994;14.052;2023-02-13T04:56:02;100384.53;;;3.77;100.00
65276;BME280;51875;49.994;14.052;2023-02-13T04:57:19;100389.34;;;3.93;100.00
65276;BME280;51875;49.994;14.052;2023-02-13T04:58:34;100384.06;;;4.19;100.00
65276;BME280;51875;49.994;14.052;2023-02-13T04:59:51;100380.56;;;3.90;100.00
65276;BME280;51875;49.994;14.052;2023-02-13T05:01:14;100382.72;;;4.03;100.00
65276;BME280;51875;49.994;14.052;2023-02-13T05:02:30;100374.00;;;4.30;100.00
65276;BME280;51875;49.994;14.052;2023-02-13T05:03:45;100373.41;;;4.10;100.00
65276;BME280;51875;49.994;14.052;2023-02-13T05:05:01;100376.69;;;4.33;100.00
65276;BME280;51875;49.994;14.052;2023-02-13T05:06:17;100376.63;;;4.32;100.00
65276;BME280;51875;49.994;14.052;2023-02-13T05:07:32;100377.78;;;4.42;100.00
65276;BME280;51875;49.994;14.052;2023-02-13T05:08:48;100368.31;;;4.44;100.00
65276;BME280;51875;49.994;14.052;2023-02-13T05:10:04;100374.56;;;4.50;100.00
65276;BME280;51875;49.994;14.052;2023-02-13T05:11:19;100374.78;;;4.58;100.00
65276;BME280;51875;49.994;14.052;2023-02-13T05:12:35;100378.50;;;4.68;100.00
65276;BME280;51875;49.994;14.052;2023-02-13T05:13:51;100378.50;;;4.68;100.00
65276;BME280;51875;49.994;14.052;2023-02-13T05:15:07;100374.28;;;4.72;100.00
65276;BME280;51875;49.994;14.052;2023-02-13T05:16:23;100374.78;;;4.58;100.00
65276;BME280;51875;49.994;14.052;2023-02-13T05:17:38;100376.72;;;4.65;100.00
65276;BME280;51875;49.994;14.052;2023-02-13T05:18:54;100381.72;;;4.59;100.00
65276;BME280;51875;49.994;14.052;2023-02-13T05:20:10;100379.72;;;4.49;100.00
65276;BME280;51875;49.994;14.052;2023-02-13T05:21:26;100376.06;;;4.42;100.00
65276;BME280;51875;49.994;14.052;2023-02-13T05:23:00;100370.91;;;4.44;100.00
65276;BME280;51875;49.994;14.052;2023-02-13T05:24:35;100376.22;;;4.48;100.00
65276;BME280;51875;49.994;14.052;2023-02-13T05:25:50;100381.69;;;4.58;100.00
65276;BME280;51875;49.994;14.052;2023-02-13T05:27:06;100383.00;;;4.13;100.00
65276;BME280;51875;49.994;14.052;2023-02-13T05:28:24;100390.31;;;4.26;100.00
65276;BME280;51875;49.994;14.052;2023-02-13T05:29:58;100377.91;;;4.46;100.00
65276;BME280;51875;49.994;14.052;2023-02-13T05:31:14;100377.47;;;4.61;100.00
65276;BME280;51875;49.994;14.052;2023-02-13T05:32:29;100383.78;;;4.41;100.00
65276;BME280;51875;49.994;14.052;2023-02-13T05:33:45;100380.22;;;4.37;100.00
65276;BME280;51875;49.994;14.052;2023-02-13T05:35:00;100378.19;;;4.56;100.00
65276;BME280;51875;49.994;14.052;2023-02-13T05:36:16;100378.34;;;4.62;100.00
65276;BME280;51875;49.994;14.052;2023-02-13T05:37:32;100384.28;;;4.27;100.00
65276;BME280;51875;49.994;14.052;2023-02-13T05:38:47;100382.47;;;4.24;100.00
65276;BME280;51875;49.994;14.052;2023-02-13T05:40:03;100391.34;;;4.33;100.00
65276;BME280;51875;49.994;14.052;2023-02-13T05:41:19;100386.31;;;4.37;100.00
65276;BME280;51875;49.994;14.052;2023-02-13T05:42:34;100378.78;;;4.47;100.00
65276;BME280;51875;49.994;14.052;2023-02-13T05:43:50;100375.53;;;4.54;100.00
65276;BME280;51875;49.994;14.052;2023-02-13T05:45:06;100377.41;;;4.60;100.00
65276;BME280;51875;49.994;14.052;2023-02-13T05:46:22;100375.69;;;4.60;100.00
65276;BME280;51875;49.994;14.052;2023-02-13T05:47:38;100384.41;;;4.62;100.00
65276;BME280;51875;49.994;14.052;2023-02-13T05:48:53;100382.59;;;4.60;100.00
65276;BME280;51875;49.994;14.052;2023-02-13T05:50:09;100388.97;;;4.41;100.00
65276;BME280;51875;49.994;14.052;2023-02-13T05:51:25;100378.06;;;4.52;100.00
65276;BME280;51875;49.994;14.052;2023-02-13T05:52:40;100384.41;;;4.32;100.00
65276;BME280;51875;49.994;14.052;2023-02-13T05:53:56;100386.38;;;4.41;100.00
65276;BME280;51875;49.994;14.052;2023-02-13T05:55:12;100385.13;;;4.57;100.00
65276;BME280;51875;49.994;14.052;2023-02-13T05:56:28;100384.31;;;4.59;100.00
65276;BME280;51875;49.994;14.052;2023-02-13T05:57:43;100383.78;;;4.41;100.00
65276;BME280;51875;49.994;14.052;2023-02-13T05:58:59;100390.09;;;4.49;100.00
65276;BME280;51875;49.994;14.052;2023-02-13T06:00:15;100386.59;;;4.48;100.00
65276;BME280;51875;49.994;14.052;2023-02-13T06:01:31;100385.00;;;4.52;100.00
65276;BME280;51875;49.994;14.052;2023-02-13T06:02:46;100389.88;;;4.41;100.00
65276;BME280;51875;49.994;14.052;2023-02-13T06:04:02;100389.88;;;4.41;100.00
65276;BME280;51875;49.994;14.052;2023-02-13T06:05:18;100393.53;;;4.48;100.00
65276;BME280;51875;49.994;14.052;2023-02-13T06:06:33;100384.41;;;4.62;100.00
65276;BME280;51875;49.994;14.052;2023-02-13T06:07:49;100387.84;;;4.61;100.00
65276;BME280;51875;49.994;14.052;2023-02-13T06:09:04;100388.63;;;4.59;100.00
65276;BME280;51875;49.994;14.052;2023-02-13T06:10:20;100382.09;;;4.41;100.00
65276;BME280;51875;49.994;14.052;2023-02-13T06:11:36;100383.38;;;4.56;100.00
65276;BME280;51875;49.994;14.052;2023-02-13T06:12:51;100392.22;;;4.64;100.00
65276;BME280;51875;49.994;14.052;2023-02-13T06:14:07;100394.88;;;4.65;100.00
65276;BME280;51875;49.994;14.052;2023-02-13T06:15:23;100390.69;;;4.71;100.00
65276;BME280;51875;49.994;14.052;2023-02-13T06:16:39;100389.06;;;4.74;100.00
65276;BME280;51875;49.994;14.052;2023-02-13T06:17:55;100392.28;;;4.67;100.00
65276;BME280;51875;49.994;14.052;2023-02-13T06:19:10;100390.88;;;4.78;100.00
65276;BME280;51875;49.994;14.052;2023-02-13T06:20:26;100393.25;;;4.69;100.00
65276;BME280;51875;49.994;14.052;2023-02-13T06:21:42;100397.50;;;4.67;100.00
65276;BME280;51875;49.994;14.052;2023-02-13T06:22:57;100392.19;;;4.62;100.00
65276;BME280;51875;49.994;14.052;2023-02-13T06:24:13;100395.63;;;4.31;100.00
65276;BME280;51875;49.994;14.052;2023-02-13T06:25:29;100399.16;;;3.76;100.00
65276;BME280;51875;49.994;14.052;2023-02-13T06:26:44;100406.00;;;3.73;100.00
65276;BME280;51875;49.994;14.052;2023-02-13T06:28:00;100401.50;;;3.96;100.00
65276;BME280;51875;49.994;14.052;2023-02-13T06:29:16;100394.50;;;4.22;100.00
65276;BME280;51875;49.994;14.052;2023-02-13T06:30:32;100400.13;;;4.38;100.00
65276;BME280;51875;49.994;14.052;2023-02-13T06:31:47;100400.28;;;4.43;100.00
65276;BME280;51875;49.994;14.052;2023-02-13T06:33:03;100402.06;;;4.15;100.00
65276;BME280;51875;49.994;14.052;2023-02-13T06:34:19;100403.66;;;4.09;100.00
65276;BME280;51875;49.994;14.052;2023-02-13T06:35:34;100403.56;;;4.37;100.00
65276;BME280;51875;49.994;14.052;2023-02-13T06:36:50;100412.38;;;4.42;100.00
65276;BME280;51875;49.994;14.052;2023-02-13T06:38:07;100404.97;;;4.56;100.00
65276;BME280;51875;49.994;14.052;2023-02-13T06:39:22;100404.97;;;4.55;100.00
65276;BME280;51875;49.994;14.052;2023-02-13T06:40:38;100397.91;;;4.50;100.00
65276;BME280;51875;49.994;14.052;2023-02-13T06:41:54;100406.56;;;4.20;100.00
65276;BME280;51875;49.994;14.052;2023-02-13T06:43:10;100410.91;;;4.21;100.00
65276;BME280;51875;49.994;14.052;2023-02-13T06:44:25;100410.13;;;3.95;100.00
65276;BME280;51875;49.994;14.052;2023-02-13T06:45:41;100405.50;;;4.14;100.00
65276;BME280;51875;49.994;14.052;2023-02-13T06:46:57;100406.84;;;4.30;100.00
65276;BME280;51875;49.994;14.052;2023-02-13T06:48:13;100404.63;;;4.44;100.00
65276;BME280;51875;49.994;14.052;2023-02-13T06:49:29;100405.38;;;4.40;100.00
65276;BME280;51875;49.994;14.052;2023-02-13T06:50:44;100411.56;;;4.45;100.00
65276;BME280;51875;49.994;14.052;2023-02-13T06:52:00;100413.69;;;4.28;100.00
65276;BME280;51875;49.994;14.052;2023-02-13T06:53:16;100412.81;;;4.27;100.00
65276;BME280;51875;49.994;14.052;2023-02-13T06:54:33;100410.97;;;4.23;100.00
65276;BME280;51875;49.994;14.052;2023-02-13T06:55:48;100414.09;;;4.42;100.00
65276;BME280;51875;49.994;14.052;2023-02-13T06:57:04;100402.53;;;4.61;100.00
65276;BME280;51875;49.994;14.052;2023-02-13T06:58:21;100418.00;;;4.58;100.00
65276;BME280;51875;49.994;14.052;2023-02-13T06:59:36;100407.66;;;4.59;100.00
65276;BME280;51875;49.994;14.052;2023-02-13T07:00:52;100410.22;;;4.58;100.00
65276;BME280;51875;49.994;14.052;2023-02-13T07:02:10;100417.13;;;4.57;100.00
65276;BME280;51875;49.994;14.052;2023-02-13T07:03:25;100408.81;;;4.69;100.00
65276;BME280;51875;49.994;14.052;2023-02-13T07:04:41;100423.22;;;4.29;100.00
65276;BME280;51875;49.994;14.052;2023-02-13T07:05:57;100414.53;;;4.57;100.00
65276;BME280;51875;49.994;14.052;2023-02-13T07:07:13;100411.50;;;4.72;100.00
65276;BME280;51875;49.994;14.052;2023-02-13T07:08:28;100416.88;;;4.80;100.00
65276;BME280;51875;49.994;14.052;2023-02-13T07:09:45;100419.56;;;4.83;100.00
65276;BME280;51875;49.994;14.052;2023-02-13T07:11:00;100417.66;;;4.76;100.00
65276;BME280;51875;49.994;14.052;2023-02-13T07:12:16;100411.09;;;4.58;100.00
65276;BME280;51875;49.994;14.052;2023-02-13T07:13:32;100416.97;;;4.52;100.00
65276;BME280;51875;49.994;14.052;2023-02-13T07:14:47;100422.28;;;4.56;100.00
65276;BME280;51875;49.994;14.052;2023-02-13T07:16:03;100422.91;;;4.79;100.00
65276;BME280;51875;49.994;14.052;2023-02-13T07:17:19;100421.28;;;4.83;100.00
65276;BME280;51875;49.994;14.052;2023-02-13T07:18:34;100420.31;;;4.79;100.00
65276;BME280;51875;49.994;14.052;2023-02-13T07:19:50;100423.69;;;4.76;100.00
65276;BME280;51875;49.994;14.052;2023-02-13T07:21:06;100417.97;;;4.88;100.00
65276;BME280;51875;49.994;14.052;2023-02-13T07:22:22;100420.66;;;4.91;100.00
65276;BME280;51875;49.994;14.052;2023-02-13T07:23:38;100420.28;;;4.77;100.00
65276;BME280;51875;49.994;14.052;2023-02-13T07:24:53;100423.84;;;4.81;100.00
65276;BME280;51875;49.994;14.052;2023-02-13T07:26:09;100418.38;;;4.72;100.00
65276;BME280;51875;49.994;14.052;2023-02-13T07:27:26;100424.25;;;4.64;100.00
65276;BME280;51875;49.994;14.052;2023-02-13T07:28:43;100430.50;;;4.73;100.00